Holbeach, United Kingdom
Current Conditions -  °F | °C
As of 4:50 PM on Thursday 18 Dec 2014 (Local Time) from EGXC Reporting Station
Broken Clouds Broken Clouds  
Wind Chill: 57°   Ceiling: 6000
Heat Index: 57°   Visibility: 6mi
Dew Point: 52°   Wind: 23mph
Humidity: 82%   Direction: 240°WSW
Pressure: 29.62"   Gusts: NA
Location:  52.8°N, 0.01°E
Report Text: EGXC 181650Z 24020KT 9999 FEW022 BKN060 14/11 Q1003 BLU BECMG BKN022 WHT
Loading
Personal Weather Stations






























Interactive Weather Map New forecast layout! Learn more

10-Day Weather Forecast

Advertisements
Track Severe Weather on mobile